CO12 weather

Brighton Van-Aire Estates Airport
Brighton, Colorado, United States

Public forecast

Using degrees Fahrenheit for public forecast. Weather courtesy of forecast.io.

METAR (pilot weather report)

Closest report is Denver International Airport, 7.4 nm (13.8 km) SSE. Retrieved 2019/04/22 20:53 UTC (40 minutes ago):

KDEN 222053Z 04006KT 10SM OVC010 06/03 A3028 RMK AO2 SLP239 T00610033 58001

TAF (pilot weather forecast)

Closest forecast is Denver International Airport, 7.4 nm (13.8 km) SSE. Retrieved 2019/04/22 18:51 UTC (3 hours ago):

TAF KDEN 221748Z 2218/2324 03009KT P6SM BKN006 OVC015 FM222000 03009KT P6SM SCT008 OVC015 FM222200 03007KT P6SM SCT015 OVC025 FM230300 13005KT P6SM BKN025 FM231200 16005KT P6SM SCT030 BKN060 FM231600 19005KT P6SM SCT060 FM232000 10007KT P6SM SCT080